LSZB/BRN METAR and TAF weather

Enter ICAO airport designator
Station Type Date Time Source
LSZB METAR 2024/04/17 17:20 UTC NOAA

LSZB 171720Z 31010KT 9999 -RA SCT031 SCT036 BKN041 05/02 Q1011


Station Type Date Time Source
LSZB Decoded METAR 2024/04/17 17:20 UTC NOAA

Bern / Belp , Switzerland (LSZB) 46-55N 007-30E
Apr 17, 2024 - 01:20 PM EDT / 2024.04.17 1720 UTC
Wind: from the NW (310 degrees) at 12 MPH (10 KT):0
Visibility: greater than 7 mile(s):0
Sky conditions: mostly cloudy
Weather: light rain
Temperature: 41 F (5 C)
Dew Point: 35 F (2 C)
Relative Humidity: 80%
Pressure (altimeter): 29.85 in. Hg (1011 hPa)
ob: LSZB 171720Z 31010KT 9999 -RA SCT031 SCT036 BKN041 05/02 Q1011
cycle: 17

Station Type Date Time Source
LSZB TAF 2014/12/22 20:03 UTC NOAA